createdAt,value
2023-11-21T00:01:41.828Z,7.02
2023-11-21T00:04:09.896Z,6.96
2023-11-21T00:06:37.948Z,6.83
2023-11-21T00:09:06.265Z,6.87
2023-11-21T00:11:34.142Z,6.84
2023-11-21T00:14:01.858Z,6.84
2023-11-21T00:16:29.329Z,6.83
2023-11-21T00:18:57.528Z,6.86
2023-11-21T00:21:25.130Z,7.01
2023-11-21T00:23:52.681Z,6.89
2023-11-21T00:26:20.523Z,7.15
2023-11-21T00:28:49.162Z,7.03
2023-11-21T00:31:16.845Z,6.98
2023-11-21T00:33:45.119Z,6.88
2023-11-21T00:36:14.106Z,6.83
2023-11-21T00:38:41.690Z,6.90
2023-11-21T00:41:09.391Z,6.96
2023-11-21T00:43:37.117Z,6.90
2023-11-21T00:46:10.714Z,6.89
2023-11-21T00:48:38.899Z,6.86
2023-11-21T00:51:07.450Z,6.88
2023-11-21T00:53:35.354Z,6.74
2023-11-21T00:56:03.765Z,7.19
2023-11-21T00:58:31.525Z,7.04
2023-11-21T01:00:59.268Z,6.85
2023-11-21T01:03:27.460Z,6.68
2023-11-21T01:05:55.439Z,6.65
2023-11-21T01:08:24.408Z,6.55
2023-11-21T01:10:52.488Z,6.68
2023-11-21T01:13:20.035Z,6.58
2023-11-21T01:15:47.640Z,6.88
2023-11-21T01:18:15.495Z,6.70
2023-11-21T01:20:42.976Z,6.67
2023-11-21T01:23:10.668Z,6.50
2023-11-21T01:25:38.607Z,6.67
2023-11-21T01:28:06.283Z,6.47
2023-11-21T01:30:34.177Z,6.80
2023-11-21T01:33:02.146Z,6.68
2023-11-21T01:35:31.639Z,6.59
2023-11-21T01:37:59.846Z,6.25
2023-11-21T01:40:27.849Z,6.51
2023-11-21T01:42:55.529Z,6.37
2023-11-21T01:45:23.558Z,6.47
2023-11-21T01:47:52.053Z,6.56
2023-11-21T01:50:20.364Z,6.60
2023-11-21T01:52:48.782Z,6.47
2023-11-21T01:55:27.485Z,6.61
2023-11-21T01:57:58.211Z,6.56
2023-11-21T02:00:29.603Z,6.53
2023-11-21T02:02:58.408Z,6.60
2023-11-21T02:05:27.154Z,6.64
2023-11-21T02:07:54.986Z,6.51
2023-11-21T02:10:24.716Z,6.72
2023-11-21T02:12:53.431Z,7.05
2023-11-21T02:15:22.245Z,6.82
2023-11-21T02:17:55.371Z,6.82
2023-11-21T02:20:26.186Z,6.73
2023-11-21T02:23:01.711Z,6.70
2023-11-21T02:25:35.365Z,6.81
2023-11-21T02:28:04.458Z,6.78
2023-11-21T02:30:35.792Z,6.74
2023-11-21T02:33:03.905Z,6.80
2023-11-21T02:35:33.248Z,6.80
2023-11-21T02:38:01.176Z,7.15
2023-11-21T02:40:28.910Z,7.02
2023-11-21T02:43:00.433Z,6.86
2023-11-21T02:45:28.397Z,6.86
2023-11-21T02:47:58.494Z,6.95
2023-11-21T02:50:28.120Z,7.26
2023-11-21T02:52:55.876Z,7.12
2023-11-21T02:55:26.193Z,7.04
2023-11-21T02:57:57.663Z,6.74
2023-11-21T03:00:28.057Z,6.84
2023-11-21T03:02:57.351Z,6.96
2023-11-21T03:05:24.994Z,6.96
2023-11-21T03:07:52.561Z,7.04
2023-11-21T03:10:22.620Z,6.88
2023-11-21T03:12:50.682Z,6.84
2023-11-21T03:15:18.498Z,6.84
2023-11-21T03:17:46.440Z,6.85
2023-11-21T03:20:15.096Z,6.97
2023-11-21T03:22:42.768Z,7.04
2023-11-21T03:25:13.465Z,7.31
2023-11-21T03:27:41.011Z,7.02
2023-11-21T03:30:10.012Z,7.05
2023-11-21T03:32:37.932Z,7.06
2023-11-21T03:35:07.307Z,7.04
2023-11-21T03:37:35.320Z,7.00
2023-11-21T03:40:05.504Z,7.03
2023-11-21T03:42:33.139Z,6.96
2023-11-21T03:45:00.590Z,7.07
2023-11-21T03:47:29.457Z,7.17
2023-11-21T03:49:57.495Z,6.94
2023-11-21T03:52:25.839Z,7.32
2023-11-21T03:54:53.857Z,7.14
2023-11-21T03:57:22.148Z,7.29
2023-11-21T03:59:49.691Z,7.49
2023-11-21T04:02:18.598Z,7.22
2023-11-21T04:04:46.860Z,7.11
2023-11-21T04:07:14.938Z,7.08
2023-11-21T04:09:42.588Z,7.07
2023-11-21T04:12:10.846Z,7.08
2023-11-21T04:14:38.442Z,7.27
2023-11-21T04:17:06.312Z,7.00
2023-11-21T04:19:34.177Z,7.07
2023-11-21T04:22:01.729Z,6.90
2023-11-21T04:24:29.452Z,6.96
2023-11-21T04:26:57.408Z,7.05
2023-11-21T04:29:24.869Z,7.07
2023-11-21T04:31:52.340Z,7.08
2023-11-21T04:34:20.099Z,7.10
2023-11-21T04:36:47.542Z,7.10
2023-11-21T04:39:15.266Z,7.30
2023-11-21T04:41:43.945Z,7.15
2023-11-21T04:44:11.615Z,7.00
2023-11-21T04:46:39.250Z,7.38
2023-11-21T04:49:07.013Z,7.21
2023-11-21T04:51:34.952Z,7.14
2023-11-21T04:54:02.396Z,7.17
2023-11-21T04:56:30.125Z,7.20
2023-11-21T04:58:57.911Z,7.20
2023-11-21T05:01:25.412Z,7.21
2023-11-21T05:03:53.890Z,7.29
2023-11-21T05:06:21.566Z,7.37
2023-11-21T05:08:49.100Z,7.44
2023-11-21T05:11:33.254Z,7.41
2023-11-21T05:14:02.905Z,7.36
2023-11-21T05:16:30.972Z,7.40
2023-11-21T05:19:02.220Z,7.43
2023-11-21T05:21:31.523Z,7.54
2023-11-21T05:23:59.464Z,7.52
2023-11-21T05:26:27.978Z,7.46
2023-11-21T05:28:55.650Z,7.74
2023-11-21T05:31:23.793Z,7.63
2023-11-21T05:33:51.292Z,7.78
2023-11-21T05:36:19.312Z,7.54
2023-11-21T05:38:47.181Z,7.56
2023-11-21T05:41:14.994Z,7.65
2023-11-21T05:43:42.497Z,7.63
2023-11-21T05:46:10.556Z,7.64
2023-11-21T05:48:40.989Z,7.69
2023-11-21T05:51:09.618Z,7.59
2023-11-21T05:53:37.555Z,7.69
2023-11-21T05:56:05.283Z,7.95
2023-11-21T05:58:33.388Z,7.81
2023-11-21T06:01:01.317Z,7.85
2023-11-21T06:03:29.366Z,7.87
2023-11-21T06:05:57.070Z,7.82
2023-11-21T06:08:25.867Z,7.89
2023-11-21T06:10:53.789Z,7.91
2023-11-21T06:13:25.563Z,7.88
2023-11-21T06:15:53.975Z,7.93
2023-11-21T06:18:21.586Z,8.17
2023-11-21T06:20:49.592Z,8.09
2023-11-21T06:23:17.665Z,7.91
2023-11-21T06:25:45.727Z,7.99
2023-11-21T06:28:13.386Z,8.44
2023-11-21T06:30:41.289Z,8.56
2023-11-21T06:33:09.288Z,8.49
2023-11-21T06:35:37.100Z,8.40
2023-11-21T06:38:04.948Z,8.30
2023-11-21T06:40:35.004Z,8.10
2023-11-21T06:43:02.637Z,8.33
2023-11-21T06:45:30.377Z,8.46
2023-11-21T06:47:57.967Z,8.54
2023-11-21T06:50:25.689Z,8.36
2023-11-21T06:52:53.598Z,8.54
2023-11-21T06:55:21.767Z,8.38
2023-11-21T06:57:49.682Z,8.57
2023-11-21T07:00:19.374Z,8.74
2023-11-21T07:02:47.429Z,8.49
2023-11-21T07:05:16.624Z,8.62
2023-11-21T07:07:45.155Z,8.71
2023-11-21T07:10:12.787Z,9.17
2023-11-21T07:12:41.253Z,9.23
2023-11-21T07:15:12.580Z,9.41
2023-11-21T07:17:41.939Z,9.46
2023-11-21T07:20:12.213Z,9.68
2023-11-21T07:22:42.045Z,9.76
2023-11-21T07:25:11.308Z,9.45
2023-11-21T07:27:38.992Z,9.83
2023-11-21T07:30:09.339Z,9.83
2023-11-21T07:32:37.286Z,9.72
2023-11-21T07:35:05.352Z,9.79
2023-11-21T07:37:35.312Z,9.73
2023-11-21T07:40:04.113Z,9.59
2023-11-21T07:42:32.437Z,9.51
2023-11-21T07:45:00.936Z,9.65
2023-11-21T07:47:33.798Z,9.84
2023-11-21T07:50:05.792Z,10.04
2023-11-21T07:52:34.161Z,9.77
2023-11-21T07:55:02.826Z,9.79
2023-11-21T07:57:30.270Z,9.79
2023-11-21T07:59:58.186Z,9.78
2023-11-21T08:02:27.325Z,9.75
2023-11-21T08:04:55.478Z,9.75
2023-11-21T08:07:23.468Z,9.68
2023-11-21T08:09:51.200Z,9.73
2023-11-21T08:12:19.447Z,9.81
2023-11-21T08:14:47.117Z,9.72
2023-11-21T08:17:18.568Z,9.84
2023-11-21T08:19:50.717Z,9.88
2023-11-21T08:22:19.103Z,9.97
2023-11-21T08:24:47.977Z,10.00
2023-11-21T08:27:17.183Z,9.99
2023-11-21T08:29:45.013Z,9.86
2023-11-21T08:32:12.899Z,10.07
2023-11-21T08:34:41.665Z,10.05
2023-11-21T08:37:09.263Z,10.01
2023-11-21T08:39:38.523Z,10.11
2023-11-21T08:42:06.163Z,10.27
2023-11-21T08:44:33.635Z,10.46
2023-11-21T08:47:01.412Z,10.44
2023-11-21T08:49:30.743Z,10.42
2023-11-21T08:52:00.692Z,10.56
2023-11-21T08:54:28.609Z,10.68
2023-11-21T08:56:56.366Z,10.60
2023-11-21T08:59:23.909Z,10.45
2023-11-21T09:01:52.033Z,10.43
2023-11-21T09:04:19.645Z,10.41
2023-11-21T09:06:47.281Z,10.68
2023-11-21T09:09:15.209Z,10.82
2023-11-21T09:11:42.807Z,10.80
2023-11-21T09:14:11.370Z,10.76
2023-11-21T09:16:40.026Z,10.58
2023-11-21T09:19:07.697Z,10.64
2023-11-21T09:21:35.674Z,10.62
2023-11-21T09:24:04.195Z,10.70
2023-11-21T09:26:31.861Z,10.70
2023-11-21T09:28:59.739Z,10.88
2023-11-21T09:31:28.937Z,10.84
2023-11-21T09:33:56.604Z,10.92
2023-11-21T09:36:28.401Z,11.03
2023-11-21T09:38:56.669Z,10.96
2023-11-21T09:41:36.276Z,11.01
2023-11-21T09:44:08.606Z,11.03
2023-11-21T09:46:40.734Z,11.13
2023-11-21T09:49:13.907Z,11.18
2023-11-21T09:51:44.802Z,11.27
2023-11-21T09:54:12.819Z,11.21
2023-11-21T09:56:40.430Z,11.52
2023-11-21T09:59:11.180Z,11.47
2023-11-21T10:01:40.509Z,11.64
2023-11-21T10:04:13.151Z,11.50
2023-11-21T10:06:42.749Z,11.40
2023-11-21T10:09:12.928Z,11.47
2023-11-21T10:11:44.744Z,11.81
2023-11-21T10:14:14.893Z,11.78
2023-11-21T10:16:43.066Z,11.88
2023-11-21T10:19:12.307Z,11.85
2023-11-21T10:21:40.924Z,11.73
2023-11-21T10:24:08.714Z,11.86
2023-11-21T10:26:47.272Z,11.91
2023-11-21T10:29:19.811Z,11.92
2023-11-21T10:31:50.975Z,11.90
2023-11-21T10:34:23.111Z,11.92
2023-11-21T10:36:51.407Z,12.15
2023-11-21T10:39:24.906Z,12.17
2023-11-21T10:41:52.581Z,12.05
2023-11-21T10:44:25.402Z,12.07
2023-11-21T10:46:57.341Z,12.14
2023-11-21T10:49:28.815Z,12.31
2023-11-21T10:51:57.075Z,12.47
2023-11-21T10:54:26.806Z,12.35
2023-11-21T10:56:58.139Z,12.37
2023-11-21T10:59:29.915Z,12.62
2023-11-21T11:01:59.269Z,12.60
2023-11-21T11:04:28.648Z,12.74
2023-11-21T11:06:59.139Z,12.69
2023-11-21T11:09:27.799Z,12.53
2023-11-21T11:11:55.321Z,12.38
2023-11-21T11:14:26.372Z,12.46
2023-11-21T11:16:57.074Z,12.64
2023-11-21T11:19:24.627Z,12.54
2023-11-21T11:22:20.120Z,12.66
2023-11-21T11:24:56.631Z,12.61
2023-11-21T11:27:36.254Z,12.79
2023-11-21T11:30:47.936Z,12.69
2023-11-21T11:33:27.564Z,12.89
2023-11-21T11:36:05.101Z,12.85
2023-11-21T11:38:34.646Z,12.87
2023-11-21T11:41:05.307Z,13.13
2023-11-21T11:43:45.694Z,13.08
2023-11-21T11:46:14.505Z,12.76
2023-11-21T11:48:42.215Z,12.66
2023-11-21T11:51:19.164Z,12.68
2023-11-21T11:53:48.254Z,12.74
2023-11-21T11:56:29.009Z,12.81
2023-11-21T11:58:58.459Z,13.04
2023-11-21T12:01:28.247Z,13.23
2023-11-21T12:04:35.331Z,13.30
2023-11-21T12:07:04.303Z,13.09
2023-11-21T12:09:32.990Z,13.00
2023-11-21T12:12:01.356Z,13.09
2023-11-21T12:14:30.032Z,13.24
2023-11-21T12:16:57.987Z,13.40
2023-11-21T12:19:26.122Z,13.39
2023-11-21T12:21:54.165Z,13.53
2023-11-21T12:24:22.115Z,13.53
2023-11-21T12:26:49.805Z,13.55
2023-11-21T12:29:18.055Z,13.55
2023-11-21T12:31:47.383Z,13.42
2023-11-21T12:34:15.831Z,13.42
2023-11-21T12:36:43.854Z,13.45
2023-11-21T12:39:12.136Z,13.42
2023-11-21T12:41:40.203Z,13.06
2023-11-21T12:44:16.783Z,13.04
2023-11-21T12:46:46.490Z,12.85
2023-11-21T12:49:18.720Z,12.88
2023-11-21T12:51:47.828Z,13.01
2023-11-21T12:54:17.018Z,13.11
2023-11-21T12:56:48.695Z,13.39
2023-11-21T12:59:19.300Z,13.30
2023-11-21T13:01:48.323Z,13.15
2023-11-21T13:04:16.316Z,13.39
2023-11-21T13:06:43.925Z,13.25
2023-11-21T13:09:19.355Z,13.31
2023-11-21T13:11:48.038Z,13.37
2023-11-21T13:14:16.007Z,13.10
2023-11-21T13:16:47.713Z,13.11
2023-11-21T13:19:15.865Z,13.08
2023-11-21T13:21:45.057Z,13.26
2023-11-21T13:24:12.701Z,12.91
2023-11-21T13:26:40.572Z,13.07
2023-11-21T13:29:10.393Z,12.96
2023-11-21T13:31:39.663Z,13.07
2023-11-21T13:34:09.664Z,13.12
2023-11-21T13:36:37.510Z,13.08
2023-11-21T13:39:16.737Z,12.96
2023-11-21T13:41:44.897Z,13.10
2023-11-21T13:44:28.317Z,13.08
2023-11-21T13:46:59.493Z,13.03
2023-11-21T13:49:30.314Z,12.96
2023-11-21T13:51:59.889Z,13.13
2023-11-21T13:54:28.589Z,13.14
2023-11-21T13:56:56.877Z,13.28
2023-11-21T13:59:29.351Z,13.19
2023-11-21T14:02:01.372Z,13.20
2023-11-21T14:04:49.683Z,13.21
2023-11-21T14:07:28.011Z,12.92
2023-11-21T14:09:57.393Z,13.25
2023-11-21T14:12:25.848Z,13.05
2023-11-21T14:14:53.929Z,13.01
2023-11-21T14:17:23.616Z,13.14
2023-11-21T14:20:04.174Z,13.04
2023-11-21T14:26:31.409Z,12.90
2023-11-21T14:29:23.694Z,12.89
2023-11-21T14:32:02.842Z,12.89
2023-11-21T14:34:30.896Z,12.72
2023-11-21T14:36:59.569Z,12.71
2023-11-21T14:39:39.032Z,12.85
2023-11-21T14:42:09.369Z,12.87
2023-11-21T15:06:30.696Z,12.15
2023-11-21T15:09:08.143Z,11.99
2023-11-21T15:11:36.616Z,12.01
2023-11-21T15:14:10.322Z,11.85
2023-11-21T15:16:44.478Z,11.98
2023-11-21T15:19:19.072Z,11.86
2023-11-21T15:21:47.199Z,11.81
2023-11-21T15:24:14.997Z,11.82
2023-11-21T15:26:42.463Z,11.66
2023-11-21T15:29:10.188Z,11.52
2023-11-21T15:31:39.542Z,11.43
2023-11-21T15:34:07.126Z,11.49
2023-11-21T15:36:34.862Z,11.39
2023-11-21T15:39:02.669Z,11.22
2023-11-21T15:41:30.208Z,11.25
2023-11-21T15:43:58.942Z,11.18
2023-11-21T15:46:27.106Z,11.16
2023-11-21T15:48:58.057Z,11.06
2023-11-21T15:51:25.928Z,11.05
2023-11-21T15:53:53.768Z,11.06
2023-11-21T15:56:21.198Z,11.07
2023-11-21T15:58:51.415Z,10.98
2023-11-21T16:01:23.135Z,11.06
2023-11-21T16:03:52.127Z,10.98
2023-11-21T16:06:19.867Z,10.93
2023-11-21T16:08:47.408Z,10.86
2023-11-21T16:11:15.219Z,10.79
2023-11-21T16:13:43.732Z,10.68
2023-11-21T16:16:11.322Z,10.66
2023-11-21T16:18:39.567Z,10.59
2023-11-21T16:21:09.210Z,10.50
2023-11-21T16:23:38.210Z,10.40
2023-11-21T16:26:07.262Z,10.42
2023-11-21T16:28:34.936Z,10.28
2023-11-21T16:31:02.739Z,10.22
2023-11-21T16:33:30.828Z,10.02
2023-11-21T16:35:58.256Z,10.02
2023-11-21T16:38:25.845Z,9.80
2023-11-21T16:40:53.779Z,9.74
2023-11-21T16:43:22.484Z,9.80
2023-11-21T16:45:53.087Z,9.80
2023-11-21T16:48:21.343Z,9.90
2023-11-21T16:50:50.092Z,9.78
2023-11-21T16:53:18.376Z,9.83
2023-11-21T16:55:50.384Z,9.62
2023-11-21T16:58:18.839Z,9.70
2023-11-21T17:00:48.742Z,9.70
2023-11-21T17:03:16.738Z,9.70
2023-11-21T17:05:44.363Z,9.59
2023-11-21T17:08:13.308Z,9.49
2023-11-21T17:10:40.840Z,9.38
2023-11-21T17:13:08.473Z,9.33
2023-11-21T17:15:36.217Z,9.22
2023-11-21T17:18:04.377Z,9.31
2023-11-21T17:20:31.978Z,9.30
2023-11-21T17:23:00.401Z,9.25
2023-11-21T17:25:27.892Z,9.17
2023-11-21T17:27:57.288Z,9.22
2023-11-21T17:30:25.087Z,9.27
2023-11-21T17:32:52.717Z,9.32
2023-11-21T17:35:20.459Z,9.27
2023-11-21T17:37:48.428Z,9.12
2023-11-21T17:40:16.442Z,9.03
2023-11-21T17:42:43.935Z,9.05
2023-11-21T17:45:11.835Z,9.10
2023-11-21T17:47:39.521Z,8.96
2023-11-21T17:50:07.120Z,9.02
2023-11-21T17:52:35.480Z,9.08
2023-11-21T17:55:02.937Z,9.20
2023-11-21T17:57:30.484Z,9.02
2023-11-21T17:59:58.175Z,8.94
2023-11-21T18:02:25.799Z,8.96
2023-11-21T18:04:53.610Z,9.03
2023-11-21T18:07:21.054Z,9.00
2023-11-21T18:09:48.880Z,8.91
2023-11-21T18:12:17.663Z,9.02
2023-11-21T18:14:49.467Z,9.32
2023-11-21T18:17:18.716Z,9.16
2023-11-21T18:19:48.231Z,9.15
2023-11-21T18:22:16.679Z,8.96
2023-11-21T18:24:44.366Z,9.06
2023-11-21T18:27:12.059Z,9.00
2023-11-21T18:29:39.681Z,9.05
2023-11-21T18:32:11.504Z,8.89
2023-11-21T18:34:44.635Z,8.75
2023-11-21T18:37:13.211Z,8.63
2023-11-21T18:39:43.705Z,8.62
2023-11-21T18:42:11.090Z,8.53
2023-11-21T18:44:55.087Z,8.71
2023-11-21T18:47:26.530Z,8.82
2023-11-21T18:49:54.545Z,9.00
2023-11-21T18:52:22.020Z,8.83
2023-11-21T18:54:49.774Z,8.89
2023-11-21T18:57:17.928Z,8.88
2023-11-21T18:59:46.076Z,8.66
2023-11-21T19:02:17.066Z,8.94
2023-11-21T19:04:45.810Z,8.69
2023-11-21T19:07:13.626Z,8.58
2023-11-21T19:09:41.313Z,8.68
2023-11-21T19:12:09.670Z,8.72
2023-11-21T19:14:37.168Z,8.55
2023-11-21T19:17:04.766Z,8.49
2023-11-21T19:19:32.837Z,8.46
2023-11-21T19:22:00.809Z,8.56
2023-11-21T19:24:30.081Z,8.58
2023-11-21T19:26:57.965Z,8.64
2023-11-21T19:29:26.741Z,8.39
2023-11-21T19:31:55.969Z,8.39
2023-11-21T19:34:24.359Z,8.42
2023-11-21T19:36:53.768Z,8.19
2023-11-21T19:39:21.347Z,8.46
2023-11-21T19:41:49.899Z,8.40
2023-11-21T19:44:17.488Z,8.44
2023-11-21T19:46:45.158Z,8.43
2023-11-21T19:49:13.669Z,8.56
2023-11-21T19:51:41.213Z,8.53
2023-11-21T19:54:09.988Z,8.44
2023-11-21T19:56:39.568Z,8.12
2023-11-21T19:59:07.149Z,8.10
2023-11-21T20:01:35.128Z,8.28
2023-11-21T20:04:03.048Z,8.23
2023-11-21T20:09:00.870Z,8.19
2023-11-21T20:11:28.715Z,8.30
2023-11-21T20:13:57.273Z,8.24
2023-11-21T20:16:26.779Z,8.23
2023-11-21T20:18:54.869Z,8.28
2023-11-21T20:21:23.551Z,8.42
2023-11-21T20:23:51.273Z,8.31
2023-11-21T20:26:26.039Z,8.18
2023-11-21T20:28:54.732Z,8.09
2023-11-21T20:31:22.666Z,8.07
2023-11-21T20:33:50.243Z,8.04
2023-11-21T20:36:17.908Z,8.01
2023-11-21T20:38:45.722Z,8.13
2023-11-21T20:41:15.452Z,8.18
2023-11-21T20:43:43.050Z,8.18
2023-11-21T20:46:11.853Z,8.00
2023-11-21T20:48:39.940Z,8.00
2023-11-21T20:51:08.093Z,8.06
2023-11-21T20:53:36.101Z,8.13
2023-11-21T20:56:04.022Z,8.29
2023-11-21T20:58:31.571Z,8.22
2023-11-21T21:00:59.465Z,8.17
2023-11-21T21:03:27.098Z,7.91
2023-11-21T21:05:54.640Z,8.08
2023-11-21T21:08:22.386Z,8.16
2023-11-21T21:10:49.930Z,8.22
2023-11-21T21:13:18.862Z,8.33
2023-11-21T21:15:49.745Z,8.34
2023-11-21T21:18:17.723Z,8.29
2023-11-21T21:20:45.896Z,8.17
2023-11-21T21:23:15.176Z,8.12
2023-11-21T21:25:42.708Z,8.25
2023-11-21T21:28:10.151Z,8.11
2023-11-21T21:30:38.220Z,8.15
2023-11-21T21:33:07.138Z,8.21
2023-11-21T21:35:34.896Z,8.21
2023-11-21T21:38:03.363Z,8.18
2023-11-21T21:40:33.208Z,8.02
2023-11-21T21:43:02.119Z,8.29
2023-11-21T21:45:30.132Z,8.01
2023-11-21T21:47:57.776Z,7.81
2023-11-21T21:50:26.775Z,7.79
2023-11-21T21:52:58.514Z,7.69
2023-11-21T21:55:30.235Z,7.72
2023-11-21T21:57:58.109Z,7.72
2023-11-21T22:00:25.667Z,7.79
2023-11-21T22:02:53.448Z,7.53
2023-11-21T22:05:20.951Z,7.63
2023-11-21T22:07:48.406Z,7.60
2023-11-21T22:10:16.303Z,7.63
2023-11-21T22:12:44.083Z,7.53
2023-11-21T22:15:11.620Z,7.75
2023-11-21T22:17:39.540Z,7.81
2023-11-21T22:20:07.608Z,7.50
2023-11-21T22:22:35.073Z,7.51
2023-11-21T22:25:04.666Z,7.27
2023-11-21T22:27:32.259Z,7.23
2023-11-21T22:30:00.133Z,7.34
2023-11-21T22:32:28.701Z,7.21
2023-11-21T22:34:56.148Z,7.32
2023-11-21T22:37:23.671Z,7.36
2023-11-21T22:39:52.635Z,7.35
2023-11-21T22:42:21.768Z,7.52
2023-11-21T22:44:49.374Z,7.30
2023-11-21T22:47:17.365Z,7.48
2023-11-21T22:49:45.038Z,7.50
2023-11-21T22:52:12.509Z,7.24
2023-11-21T22:54:40.382Z,7.06
2023-11-21T22:57:07.968Z,7.37
2023-11-21T22:59:36.833Z,7.31
2023-11-21T23:02:05.075Z,7.34
2023-11-21T23:04:32.652Z,7.24
2023-11-21T23:07:00.177Z,7.67
2023-11-21T23:09:28.018Z,7.30
2023-11-21T23:11:55.578Z,7.20
2023-11-21T23:14:23.127Z,6.95
2023-11-21T23:16:52.723Z,6.99
2023-11-21T23:19:21.628Z,6.99
2023-11-21T23:21:49.186Z,7.05
2023-11-21T23:24:21.324Z,7.21
2023-11-21T23:26:49.230Z,7.50
2023-11-21T23:29:17.799Z,6.98
2023-11-21T23:31:45.313Z,6.93
2023-11-21T23:34:13.139Z,6.83
2023-11-21T23:36:41.378Z,6.81
2023-11-21T23:39:09.167Z,6.69
2023-11-21T23:41:36.667Z,6.94
2023-11-21T23:44:05.797Z,7.20
2023-11-21T23:46:36.892Z,6.78
2023-11-21T23:49:04.728Z,6.70
2023-11-21T23:51:32.330Z,6.62
2023-11-21T23:53:59.789Z,6.53
2023-11-21T23:56:27.763Z,6.48
2023-11-21T23:58:55.897Z,6.41
